Time;durP1;ratioP1;P1;durP2;ratioP2;P2;SDS_P1;SDS_P2;PMS_P1;PMS_P2;Temp;Humidity;BMP_temperature;BMP_pressure;BME280_temperature;BME280_humidity;BME280_pressure;Samples;Min_cycle;Max_cycle;Signal;HPM_P1;HPM_P2
2024/05/06 00:02:04;;;;;;;11.50;3.78;;;;;;;12.82;68.79;99207.41;5036833;27;20002;-95
2024/05/06 00:04:36;;;;;;;8.52;4.47;;;;;;;12.85;69.99;99228.47;5039427;28;20026;-96
2024/05/06 00:07:02;;;;;;;8.15;4.30;;;;;;;12.84;70.09;99239.56;5037438;28;20014;-94
2024/05/06 00:09:29;;;;;;;12.57;4.85;;;;;;;12.65;69.88;99207.88;5012237;28;20014;-95
2024/05/06 00:11:59;;;;;;;7.53;4.20;;;;;;;12.70;70.15;99218.63;5086077;28;20419;-96
2024/05/06 00:14:25;;;;;;;8.02;4.32;;;;;;;12.81;69.83;99218.53;5012558;28;20006;-96
2024/05/06 00:16:50;;;;;;;6.30;2.92;;;;;;;12.90;68.01;99222.19;5012241;28;20068;-96
2024/05/06 00:19:17;;;;;;;5.50;3.13;;;;;;;12.93;66.92;99219.72;5013154;28;19998;-96
2024/05/06 00:21:47;;;;;;;5.53;3.10;;;;;;;12.94;65.94;99212.41;5038457;28;19998;-96
2024/05/06 00:24:12;;;;;;;7.18;3.83;;;;;;;13.00;67.17;99219.38;5015198;28;20009;-96
2024/05/06 00:26:41;;;;;;;8.23;3.90;;;;;;;12.90;68.52;99201.38;5013625;28;20011;-96
2024/05/06 00:29:07;;;;;;;6.18;3.50;;;;;;;12.93;69.75;99222.44;5015494;28;20009;-96
2024/05/06 00:31:33;;;;;;;8.15;4.25;;;;;;;12.69;70.14;99206.19;5014210;28;19995;-96
2024/05/06 00:34:02;;;;;;;7.93;4.30;;;;;;;12.72;70.12;99213.75;5039773;28;20002;-96
2024/05/06 00:36:40;;;;;;;;;;;;;;;;;;;;;
2024/05/06 00:39:08;;;;;;;6.15;3.85;;;;;;;12.49;70.71;99201.81;5067581;27;20294;-96
2024/05/06 00:41:34;;;;;;;5.35;4.00;;;;;;;12.40;70.58;99197.31;5063744;28;20007;-96
2024/05/06 00:44:10;;;;;;;7.43;3.88;;;;;;;12.43;70.26;99202.13;5013544;27;20013;-96
2024/05/06 00:46:41;;;;;;;11.95;3.65;;;;;;;12.43;70.07;99199.44;5013948;28;20007;-96
2024/05/06 00:49:07;;;;;;;6.18;3.75;;;;;;;12.41;70.04;99204.31;5038157;28;20003;-96
2024/05/06 00:51:32;;;;;;;10.13;4.03;;;;;;;12.50;70.15;99211.53;5012037;28;20014;-92
2024/05/06 00:54:07;;;;;;;6.93;3.90;;;;;;;12.58;70.01;99215.50;5006218;27;20011;-91
2024/05/06 00:56:33;;;;;;;7.55;3.67;;;;;;;12.51;70.07;99206.91;5030896;28;20022;-90
2024/05/06 00:59:01;;;;;;;5.85;3.85;;;;;;;12.39;71.14;99203.78;5030696;28;20056;-91
2024/05/06 01:01:28;;;;;;;9.32;4.30;;;;;;;12.54;70.70;99234.16;5032175;28;20034;-92
2024/05/06 01:03:54;;;;;;;6.63;3.60;;;;;;;12.43;70.32;99207.53;5032368;28;20067;-93
2024/05/06 01:06:21;;;;;;;7.93;3.63;;;;;;;12.46;70.02;99218.59;5032857;28;20431;-92
2024/05/06 01:08:48;;;;;;;7.85;3.55;;;;;;;12.48;69.76;99211.00;5005826;28;20014;-92
2024/05/06 01:11:14;;;;;;;7.82;3.83;;;;;;;12.56;69.93;99215.00;5033401;28;20463;-93
2024/05/06 01:13:40;;;;;;;6.45;3.80;;;;;;;12.48;70.45;99207.50;5031110;28;20501;-91
2024/05/06 01:16:06;;;;;;;5.97;3.30;;;;;;;12.53;69.46;99200.16;5006417;28;19995;-92
2024/05/06 01:18:31;;;;;;;6.63;3.67;;;;;;;12.70;69.68;99220.50;5034361;28;20003;-92
2024/05/06 01:21:04;;;;;;;5.35;3.42;;;;;;;12.79;69.31;99216.09;5035464;28;20002;-92
2024/05/06 01:23:30;;;;;;;;;;;;;;;12.82;69.65;99217.41;5010561;28;20079;-91
2024/05/06 01:25:56;;;;;;;8.40;3.40;;;;;;;12.68;69.55;99196.50;5014641;28;20250;-91
2024/05/06 01:28:23;;;;;;;4.65;3.03;;;;;;;12.61;70.20;99203.31;4980905;28;19987;-93
2024/05/06 01:30:48;;;;;;;5.25;3.58;;;;;;;12.72;69.27;99207.50;5005502;28;20034;-93
2024/05/06 01:33:15;;;;;;;4.82;3.50;;;;;;;12.68;69.40;99207.31;4979331;28;20447;-92
2024/05/06 01:35:41;;;;;;;6.57;3.25;;;;;;;12.69;69.64;99205.41;4980122;28;20008;-91
2024/05/06 01:38:07;;;;;;;5.60;3.90;;;;;;;12.88;69.02;99210.88;4980969;28;20450;-91
2024/05/06 01:40:36;;;;;;;8.43;3.78;;;;;;;12.83;68.71;99184.72;4981001;28;20435;-92
2024/05/06 01:43:01;;;;;;;6.32;3.53;;;;;;;13.07;68.04;99219.84;4979663;28;20015;-92
2024/05/06 01:45:28;;;;;;;6.78;3.63;;;;;;;13.08;67.79;99207.13;4979392;28;20011;-92
2024/05/06 01:47:53;;;;;;;3.97;3.30;;;;;;;13.00;68.74;99205.88;5022843;28;20003;-92
2024/05/06 01:50:19;;;;;;;6.30;3.22;;;;;;;12.87;69.00;99187.66;5009467;28;20014;-93
2024/05/06 01:52:45;;;;;;;4.95;3.22;;;;;;;12.85;69.79;99203.34;5009468;28;20013;-92
2024/05/06 01:55:11;;;;;;;7.03;3.30;;;;;;;12.80;69.85;99193.38;5028077;28;20007;-92
2024/05/06 01:57:36;;;;;;;6.65;3.25;;;;;;;12.73;69.69;99198.34;5032426;27;20010;-93
2024/05/06 02:00:02;;;;;;;10.27;3.42;;;;;;;12.87;69.68;99211.97;5028275;28;20014;-92
2024/05/06 02:02:30;;;;;;;6.43;3.55;;;;;;;12.76;68.88;99200.44;5009298;28;19999;-93
2024/05/06 02:04:55;;;;;;;5.72;3.33;;;;;;;12.81;69.67;99208.50;5010095;28;20014;-92
2024/05/06 02:07:21;;;;;;;8.70;3.75;;;;;;;12.73;69.97;99201.84;5008710;28;19995;-93
2024/05/06 02:09:46;;;;;;;6.97;3.58;;;;;;;12.88;69.59;99213.56;5009057;28;19995;-92
2024/05/06 02:12:14;;;;;;;11.43;3.78;;;;;;;12.86;68.35;99205.75;5009305;28;20014;-93
2024/05/06 02:14:39;;;;;;;5.05;3.78;;;;;;;12.97;68.40;99224.53;5009655;28;20002;-93
2024/05/06 02:17:05;;;;;;;5.80;3.47;;;;;;;12.93;68.03;99194.59;5009399;28;20079;-91
2024/05/06 02:19:31;;;;;;;6.80;4.15;;;;;;;13.04;66.46;99214.22;5035560;28;20404;-93
2024/05/06 02:21:58;;;;;;;6.60;3.65;;;;;;;13.07;67.36;99214.44;5009233;28;20006;-92
2024/05/06 02:24:23;;;;;;;6.50;3.35;;;;;;;13.13;67.68;99225.97;5034788;28;20010;-92
2024/05/06 02:26:49;;;;;;;7.60;3.80;;;;;;;12.86;67.86;99197.63;5009223;28;19995;-92
2024/05/06 02:29:14;;;;;;;7.57;3.20;;;;;;;13.04;67.54;99214.22;5007891;28;20013;-94
2024/05/06 02:31:40;;;;;;;6.85;3.20;;;;;;;13.00;66.05;99213.16;5008278;28;20034;-91
2024/05/06 02:34:06;;;;;;;7.43;3.28;;;;;;;12.96;64.52;99195.91;5009306;28;20038;-91
2024/05/06 02:36:32;;;;;;;4.38;3.00;;;;;;;13.01;64.95;99218.31;5009740;28;20009;-92
2024/05/06 02:39:00;;;;;;;5.55;3.13;;;;;;;13.02;64.83;99213.69;5009127;28;19998;-92
2024/05/06 02:41:28;;;;;;;4.53;2.88;;;;;;;12.97;64.46;99203.75;5010765;28;20018;-92
2024/05/06 02:43:54;;;;;;;9.90;3.47;;;;;;;12.96;63.96;99212.94;5036377;28;20014;-93
2024/05/06 02:46:20;;;;;;;5.05;3.45;;;;;;;12.92;64.28;99207.28;5010404;28;20002;-93
2024/05/06 02:48:48;;;;;;;5.22;3.30;;;;;;;12.91;63.43;99210.31;5036042;28;20009;-90
2024/05/06 02:51:20;;;;;;;9.25;3.33;;;;;;;12.97;63.29;99211.84;5035395;28;20010;-93
2024/05/06 02:53:47;;;;;;;6.35;3.67;;;;;;;13.04;63.41;99217.72;5061642;28;20017;-92
2024/05/06 02:56:14;;;;;;;7.97;3.47;;;;;;;12.91;64.72;99203.00;5034595;28;20047;-93
2024/05/06 02:58:39;;;;;;;4.82;2.83;;;;;;;12.83;65.70;99203.63;5033865;28;20035;-93
2024/05/06 03:01:05;;;;;;;6.78;2.97;;;;;;;12.96;65.49;99231.06;5034316;28;19998;-93
2024/05/06 03:03:31;;;;;;;9.23;3.17;;;;;;;12.81;65.68;99224.72;5009979;28;20017;-92
2024/05/06 03:05:59;;;;;;;4.13;2.60;;;;;;;12.55;65.80;99202.56;5035790;28;20007;-93
2024/05/06 03:08:28;;;;;;;3.95;2.50;;;;;;;12.58;66.18;99210.09;5034472;28;20430;-93
2024/05/06 03:10:54;;;;;;;4.15;2.50;;;;;;;12.62;66.01;99231.97;5034770;28;20003;-92
2024/05/06 03:13:20;;;;;;;3.95;2.33;;;;;;;12.45;65.91;99225.09;5035114;28;20006;-92
2024/05/06 03:15:46;;;;;;;5.57;2.50;;;;;;;12.49;65.59;99226.13;5008373;28;19995;-93
2024/05/06 03:18:12;;;;;;;4.15;2.50;;;;;;;12.53;65.47;99240.69;5008831;28;20528;-93
2024/05/06 03:20:40;;;;;;;4.88;2.28;;;;;;;12.45;65.14;99224.25;5005483;28;20047;-92
2024/05/06 03:23:05;;;;;;;5.68;2.72;;;;;;;12.39;65.23;99206.50;5034435;28;20021;-92
2024/05/06 03:25:31;;;;;;;3.72;2.58;;;;;;;12.49;65.59;99228.84;5008616;28;20003;-91
2024/05/06 03:27:57;;;;;;;4.80;2.90;;;;;;;12.60;65.57;99243.03;5011525;28;20032;-92
2024/05/06 03:30:23;;;;;;;5.88;2.88;;;;;;;12.62;65.40;99227.34;5003681;28;20003;-93
2024/05/06 03:32:49;;;;;;;5.38;2.78;;;;;;;12.69;65.40;99238.63;4978922;28;20075;-92
2024/05/06 03:35:15;;;;;;;7.03;2.72;;;;;;;12.64;67.16;99246.00;4980390;28;19999;-93
2024/05/06 03:37:42;;;;;;;5.53;2.75;;;;;;;12.49;68.03;99231.53;5001800;28;20015;-92
2024/05/06 03:40:09;;;;;;;7.35;3.17;;;;;;;12.50;68.47;99248.53;4994726;28;20010;-91
2024/05/06 03:42:34;;;;;;;6.40;2.88;;;;;;;12.48;69.47;99248.00;5007609;28;20017;-91
2024/05/06 03:45:00;;;;;;;5.78;2.80;;;;;;;12.48;70.29;99259.63;5007905;28;20002;-92
2024/05/06 03:47:25;;;;;;;7.75;4.03;;;;;;;12.33;70.55;99238.97;4996337;28;20083;-92
2024/05/06 03:49:51;;;;;;;4.53;3.00;;;;;;;12.38;70.82;99240.00;5001019;28;20006;-92
2024/05/06 03:52:17;;;;;;;7.35;3.03;;;;;;;12.33;70.27;99228.16;4990233;28;20339;-91
2024/05/06 03:54:43;;;;;;;6.85;3.17;;;;;;;12.48;70.22;99238.00;5001915;28;20021;-92
2024/05/06 03:57:08;;;;;;;5.07;2.63;;;;;;;12.46;70.31;99244.78;5008284;28;19999;-91
2024/05/06 03:59:34;;;;;;;5.30;2.92;;;;;;;12.48;70.51;99235.31;5007886;28;20003;-92
2024/05/06 04:02:00;;;;;;;7.82;3.22;;;;;;;12.49;70.68;99246.91;5059188;28;20006;-92
2024/05/06 04:04:25;;;;;;;8.45;3.47;;;;;;;12.47;70.53;99247.22;5008495;28;19999;-92
2024/05/06 04:06:51;;;;;;;9.82;2.83;;;;;;;12.42;70.90;99239.16;5008055;28;19999;-92
2024/05/06 04:09:17;;;;;;;4.85;2.78;;;;;;;12.34;70.87;99243.25;5028269;28;20019;-92
2024/05/06 04:11:42;;;;;;;5.00;2.90;;;;;;;12.28;71.05;99233.59;5005690;28;20010;-93
2024/05/06 04:14:11;;;;;;;4.78;3.28;;;;;;;12.43;70.71;99261.53;5007523;28;20018;-92
2024/05/06 04:16:37;;;;;;;3.42;2.58;;;;;;;12.47;70.44;99251.78;5008601;28;20010;-91
2024/05/06 04:19:04;;;;;;;6.90;3.05;;;;;;;12.39;70.02;99244.28;5007790;28;20531;-91
2024/05/06 04:21:30;;;;;;;5.53;2.85;;;;;;;12.49;70.61;99263.94;5032363;28;20022;-93
2024/05/06 04:29:24;;;;;;;9.55;3.40;;;;;;;12.60;69.31;99248.44;5022048;28;20035;-92
2024/05/06 04:31:49;;;;;;;5.32;3.08;;;;;;;12.68;67.66;99261.34;5007757;28;19998;-91
2024/05/06 04:34:15;;;;;;;7.45;3.20;;;;;;;12.72;67.88;99256.97;5007568;28;20002;-92
2024/05/06 04:36:41;;;;;;;8.98;3.00;;;;;;;12.78;67.13;99249.59;5007346;28;20322;-90
2024/05/06 04:39:06;;;;;;;6.15;2.58;;;;;;;12.92;66.31;99247.03;5007595;28;19999;-93
2024/05/06 04:41:34;;;;;;;5.45;2.47;;;;;;;12.94;65.77;99236.75;5032029;28;20479;-93
2024/05/06 04:44:03;;;;;;;5.55;2.35;;;;;;;13.10;65.26;99256.31;5011110;28;20518;-96
2024/05/06 04:46:29;;;;;;;4.90;2.10;;;;;;;13.20;64.70;99268.88;5011762;28;20006;-96
2024/05/06 04:48:54;;;;;;;5.70;2.72;;;;;;;13.26;63.55;99260.44;5036794;28;20012;-96
2024/05/06 04:51:22;;;;;;;8.45;2.33;;;;;;;13.31;63.68;99259.59;5035627;28;20010;-96
2024/05/06 04:53:48;;;;;;;5.53;2.47;;;;;;;13.46;63.80;99255.91;5040018;28;20003;-96
2024/05/06 04:56:16;;;;;;;5.68;2.50;;;;;;;13.31;62.81;99219.84;5039241;28;20005;-95
2024/05/06 04:58:44;;;;;;;14.02;6.85;;;;;;;13.62;61.47;99254.59;5014071;28;20019;-95
2024/05/06 05:01:11;;;;;;;7.93;3.42;;;;;;;13.65;61.19;99243.19;5014512;28;20052;-96
2024/05/06 05:03:36;;;;;;;6.38;2.80;;;;;;;13.62;60.78;99235.66;5014219;28;20007;-95
2024/05/06 05:06:02;;;;;;;5.97;2.50;;;;;;;13.84;59.70;99253.19;5013112;28;20030;-96
2024/05/06 05:08:28;;;;;;;7.70;2.60;;;;;;;13.79;59.47;99243.25;5012601;28;20014;-95
2024/05/06 05:10:54;;;;;;;8.75;2.28;;;;;;;13.90;59.33;99241.22;5013874;28;20422;-95
2024/05/06 05:13:22;;;;;;;4.63;2.20;;;;;;;13.90;58.07;99250.16;5013333;28;20014;-96
2024/05/06 05:15:51;;;;;;;6.00;2.83;;;;;;;13.97;57.59;99227.31;5039506;28;20071;-96
2024/05/06 05:18:19;;;;;;;6.75;2.38;;;;;;;14.00;58.78;99216.69;5039407;28;20462;-96
2024/05/06 05:20:48;;;;;;;4.50;2.33;;;;;;;14.10;59.55;99230.06;5039435;28;20009;-95
2024/05/06 05:23:14;;;;;;;5.70;2.50;;;;;;;14.14;58.63;99233.00;5016203;28;20014;-94
2024/05/06 05:25:42;;;;;;;5.18;2.42;;;;;;;14.21;58.32;99233.41;5017725;28;19995;-96
2024/05/06 05:28:12;;;;;;;7.95;3.40;;;;;;;14.25;58.07;99231.72;5017202;28;20006;-96
2024/05/06 05:30:40;;;;;;;7.07;2.75;;;;;;;14.42;58.43;99252.88;5016341;28;20013;-96
2024/05/06 05:33:06;;;;;;;3.20;2.30;;;;;;;14.41;57.75;99239.59;5013898;27;20385;-95
2024/05/06 05:35:32;;;;;;;5.63;2.00;;;;;;;14.58;56.99;99248.00;5014195;28;20045;-96
2024/05/06 05:38:00;;;;;;;5.80;2.35;;;;;;;14.70;56.50;99264.59;5040007;28;20013;-96
2024/05/06 05:40:28;;;;;;;5.57;2.08;;;;;;;14.62;56.21;99229.25;5014316;28;20022;-95
2024/05/06 05:42:54;;;;;;;5.07;2.20;;;;;;;14.91;55.76;99264.22;5011563;28;20415;-96
2024/05/06 05:45:19;;;;;;;5.00;2.40;;;;;;;14.87;54.89;99238.81;5038572;28;20070;-96
2024/05/06 05:47:48;;;;;;;5.10;2.50;;;;;;;15.02;55.30;99249.34;5013970;28;20002;-96
2024/05/06 05:50:16;;;;;;;3.00;2.33;;;;;;;14.98;55.13;99228.56;5016152;28;20014;-96
2024/05/06 05:52:52;;;;;;;6.65;2.50;;;;;;;15.24;54.77;99259.50;5017743;28;20010;-96
2024/05/06 05:55:19;;;;;;;5.82;2.30;;;;;;;15.22;54.99;99242.72;5042285;28;20006;-96
2024/05/06 06:01:09;;;;;;;15.70;10.32;;;;;;;15.62;52.07;99253.81;5093961;28;20013;-95
2024/05/06 06:03:45;;;;;;;4.93;3.05;;;;;;;15.64;52.52;99253.53;5015443;28;20007;-95
2024/05/06 06:06:12;;;;;;;8.02;3.00;;;;;;;15.76;52.82;99246.47;5019717;28;20542;-95
2024/05/06 06:09:03;;;;;;;7.90;2.55;;;;;;;16.06;53.88;99281.38;5038588;28;20030;-96
2024/05/06 06:11:59;;;;;;;;;;;;;;;;;;;;;
2024/05/06 06:14:28;;;;;;;4.15;1.80;;;;;;;16.06;52.93;99251.50;5000963;28;20000;-96
2024/05/06 06:16:56;;;;;;;8.68;2.05;;;;;;;16.26;52.00;99250.22;4948573;28;20015;-96
2024/05/06 06:19:25;;;;;;;8.98;2.28;;;;;;;16.30;52.50;99259.38;4948338;28;20005;-96
2024/05/06 06:22:00;;;;;;;5.75;2.38;;;;;;;16.40;52.27;99245.53;4973838;28;20086;-96
2024/05/06 06:24:31;;;;;;;6.88;2.42;;;;;;;16.69;52.74;99276.88;4946058;28;20032;-96
2024/05/06 06:27:04;;;;;;;4.18;2.83;;;;;;;16.70;51.63;99256.72;4970924;28;20017;-96
2024/05/06 06:29:30;;;;;;;7.25;2.97;;;;;;;16.60;50.98;99243.41;4946055;28;19997;-94
2024/05/06 06:31:56;;;;;;;5.80;2.53;;;;;;;16.84;50.11;99262.91;4968950;28;20001;-95
2024/05/06 06:34:23;;;;;;;7.20;2.88;;;;;;;16.96;50.55;99265.84;4945482;28;20056;-95
2024/05/06 06:49:37;;;;;;;9.00;3.17;;;;;;;17.47;49.34;99220.06;5057476;28;20478;-96
2024/05/06 06:52:18;;;;;;;8.38;2.70;;;;;;;17.67;49.43;99226.81;4982955;28;20023;-96
2024/05/06 06:55:05;;;;;;;13.30;3.13;;;;;;;17.69;48.66;99224.56;4984609;28;20039;-96
2024/05/06 06:57:31;;;;;;;7.47;2.90;;;;;;;17.80;48.14;99216.88;4984426;28;19995;-96
2024/05/06 06:59:57;;;;;;;13.75;4.70;;;;;;;17.71;45.80;99226.97;4983757;28;19996;-96
2024/05/06 07:02:24;;;;;;;8.18;3.88;;;;;;;17.78;45.88;99216.41;4983381;28;20385;-95
2024/05/06 07:04:52;;;;;;;9.65;3.58;;;;;;;18.05;45.52;99237.09;4985812;28;20003;-96
2024/05/06 07:07:28;;;;;;;10.07;3.60;;;;;;;18.07;46.95;99214.97;4986200;28;20015;-95
2024/05/06 07:13:19;;;;;;;5.85;3.30;;;;;;;18.46;45.18;99219.41;5059850;28;20010;-96
2024/05/06 07:15:50;;;;;;;6.95;3.03;;;;;;;18.51;45.04;99216.50;5007670;28;20011;-96
2024/05/06 07:18:16;;;;;;;9.77;2.70;;;;;;;18.55;45.61;99213.91;4984502;28;20011;-96
2024/05/06 07:20:43;;;;;;;4.68;2.55;;;;;;;18.68;44.63;99217.59;5007213;28;20018;-95
2024/05/06 07:23:26;;;;;;;7.72;2.75;;;;;;;18.85;45.17;99206.63;4985129;28;20015;-96
2024/05/06 07:25:58;;;;;;;4.97;2.90;;;;;;;19.08;44.68;99222.75;5012628;28;20009;-94
2024/05/06 07:28:38;;;;;;;8.10;2.90;;;;;;;19.18;44.28;99212.25;5010396;28;20358;-96
2024/05/06 07:31:08;;;;;;;5.93;2.67;;;;;;;19.52;43.31;99228.75;4993759;28;20014;-96
2024/05/06 07:33:34;;;;;;;6.40;2.75;;;;;;;19.36;42.76;99210.22;5010884;28;20542;-95
2024/05/06 07:36:03;;;;;;;5.13;2.40;;;;;;;19.55;43.00;99200.78;4982468;28;20023;-95
2024/05/06 07:38:32;;;;;;;11.60;2.97;;;;;;;19.68;43.29;99215.31;5008217;28;20004;-96
2024/05/06 07:41:02;;;;;;;7.25;2.85;;;;;;;19.73;43.63;99210.44;5007794;28;19999;-96
2024/05/06 07:43:28;;;;;;;5.25;2.63;;;;;;;19.78;43.11;99201.28;4983295;28;19991;-95
2024/05/06 07:45:59;;;;;;;5.95;2.63;;;;;;;20.05;42.47;99216.31;4982739;28;20010;-96
2024/05/06 07:48:25;;;;;;;6.30;2.67;;;;;;;20.15;42.06;99207.69;4984910;28;20018;-96
2024/05/06 07:50:54;;;;;;;5.47;2.85;;;;;;;20.36;42.18;99218.56;4980087;28;20008;-96
2024/05/06 07:53:53;;;;;;;4.70;2.25;;;;;;;20.51;41.58;99225.34;4986502;28;20023;-96
2024/05/06 07:56:22;;;;;;;9.13;2.55;;;;;;;20.45;40.49;99198.53;4998171;28;20047;-96
2024/05/06 07:58:49;;;;;;;5.90;3.17;;;;;;;20.60;40.57;99192.44;4974126;28;20365;-96
2024/05/06 08:01:29;;;;;;;;;;;;;;;;;;;;;
2024/05/06 08:04:18;;;;;;;4.85;2.50;;;;;;;20.73;39.17;99185.03;4975822;28;20005;-96
2024/05/06 08:07:00;;;;;;;9.05;2.42;;;;;;;20.97;38.54;99197.94;4951577;28;20005;-96
2024/05/06 08:10:01;;;;;;;5.22;2.42;;;;;;;21.24;38.78;99212.09;4999238;28;20048;-96
2024/05/06 08:12:31;;;;;;;9.40;2.30;;;;;;;21.18;38.05;99192.34;4915434;29;19999;-96
2024/05/06 08:15:19;;;;;;;;;;;;;;;;;;;;;
2024/05/06 08:21:32;;;;;;;5.80;2.00;;;;;;;21.52;35.84;99206.69;4957183;28;20053;-96
2024/05/06 08:24:29;;;;;;;5.38;2.20;;;;;;;21.67;35.18;99199.72;4892923;29;20009;-96
2024/05/06 08:32:04;;;;;;;5.63;2.28;;;;;;;21.85;34.24;99189.25;5092114;27;20017;-94
2024/05/06 08:34:39;;;;;;;9.98;4.40;;;;;;;21.83;33.98;99172.34;5041508;28;20338;-96
2024/05/06 08:37:07;;;;;;;7.32;2.00;;;;;;;21.90;32.26;99173.34;5039499;28;20022;-95
2024/05/06 08:39:44;;;;;;;7.13;2.15;;;;;;;22.06;32.77;99186.28;5014003;28;20454;-96
2024/05/06 08:42:17;;;;;;;6.82;2.13;;;;;;;22.11;32.11;99173.13;5016248;28;20010;-95
2024/05/06 08:44:45;;;;;;;5.50;2.50;;;;;;;22.17;32.56;99162.72;5015198;28;20021;-95
2024/05/06 08:47:21;;;;;;;;;;;;;;;;;;;;;
2024/05/06 08:49:51;;;;;;;5.80;2.47;;;;;;;22.43;33.49;99180.66;5042945;28;19994;-94
2024/05/06 08:52:25;;;;;;;6.75;2.00;;;;;;;22.37;33.17;99169.94;5014612;28;20051;-95
2024/05/06 08:55:19;;;;;;;5.18;2.30;;;;;;;22.47;32.34;99163.13;5017214;28;20007;-94
2024/05/06 08:57:48;;;;;;;7.57;2.40;;;;;;;22.59;31.88;99165.00;5044782;28;20006;-95
2024/05/06 09:00:38;;;;;;;;;;;;;;;;;;;;;
2024/05/06 09:03:09;;;;;;;11.20;1.95;;;;;;;22.80;31.82;99170.22;5044795;28;20013;-95
2024/05/06 09:05:48;;;;;;;3.15;1.70;;;;;;;22.73;31.27;99157.13;5015168;28;19998;-96
2024/05/06 09:09:01;;;;;;;4.00;1.85;;;;;;;22.89;31.78;99184.56;5018177;28;20003;-96
2024/05/06 09:11:32;;;;;;;3.13;1.90;;;;;;;22.92;30.77;99172.06;5052926;28;20011;-96
2024/05/06 09:14:02;;;;;;;4.35;1.73;;;;;;;22.96;31.94;99156.47;5040885;28;20002;-95
2024/05/06 09:16:57;;;;;;;5.85;1.90;;;;;;;23.04;31.48;99149.22;5015272;27;19994;-96
2024/05/06 09:19:28;;;;;;;5.70;1.90;;;;;;;23.28;31.08;99172.91;5048139;28;20010;-96
2024/05/06 09:22:16;;;;;;;;;;;;;;;;;;;;;
2024/05/06 09:25:12;;;;;;;6.07;1.80;;;;;;;23.40;29.67;99145.31;5069030;28;20002;-96
2024/05/06 09:27:54;;;;;;;4.50;1.80;;;;;;;23.44;29.49;99153.63;5032947;28;20002;-95
2024/05/06 09:30:23;;;;;;;7.32;2.08;;;;;;;23.30;30.30;99137.63;5037858;28;20017;-95
2024/05/06 09:32:58;;;;;;;5.13;1.85;;;;;;;23.36;29.23;99136.97;5014360;28;20023;-96
2024/05/06 09:35:24;;;;;;;3.17;2.15;;;;;;;23.36;29.37;99130.69;5041443;28;20026;-94
2024/05/06 09:37:50;;;;;;;4.72;2.20;;;;;;;23.39;29.57;99119.00;5014332;28;19999;-94
2024/05/06 09:40:18;;;;;;;3.63;1.73;;;;;;;23.64;29.49;99143.44;5013873;28;20010;-95
2024/05/06 09:42:47;;;;;;;3.58;1.75;;;;;;;23.63;29.91;99128.09;5013405;28;20002;-95
2024/05/06 09:45:20;;;;;;;5.22;2.00;;;;;;;23.89;30.09;99152.22;5091759;28;20006;-94
2024/05/06 09:47:46;;;;;;;4.78;2.20;;;;;;;23.84;29.81;99127.75;5013378;28;20010;-95
2024/05/06 09:50:23;;;;;;;3.40;2.40;;;;;;;23.93;29.69;99129.13;5012772;28;20059;-96
2024/05/06 09:53:03;;;;;;;5.90;2.50;;;;;;;23.99;30.06;99124.13;5039567;28;20083;-95
2024/05/06 09:56:17;;;;;;;2.67;1.65;;;;;;;24.05;28.74;99119.09;5013514;28;20003;-96
2024/05/06 09:59:00;;;;;;;;;;;;;;;;;;;;;
2024/05/06 10:01:38;;;;;;;3.65;1.80;;;;;;;24.05;28.68;99111.69;5043222;28;20002;-95
2024/05/06 10:04:07;;;;;;;2.83;1.80;;;;;;;24.11;29.03;99114.91;5014126;28;20042;-94
2024/05/06 10:13:28;;;;;;;10.40;1.90;;;;;;;24.20;29.00;99113.50;4982166;28;20016;-95
2024/05/06 10:18:47;;;;;;;3.17;1.75;;;;;;;24.38;29.99;99113.81;5045971;28;20083;-94
2024/05/06 10:21:39;;;;;;;3.30;1.58;;;;;;;24.26;30.22;99097.50;5039602;28;20009;-94
2024/05/06 10:24:18;;;;;;;;;;;;;;;;;;;;;
2024/05/06 10:26:57;;;;;;;3.38;1.70;;;;;;;24.29;30.18;99095.97;5065829;28;20005;-94
2024/05/06 10:29:31;;;;;;;4.35;2.05;;;;;;;24.34;30.98;99109.41;5014221;28;20010;-94
2024/05/06 10:31:59;;;;;;;4.25;1.83;;;;;;;24.45;30.66;99107.63;5012880;28;20009;-92
2024/05/06 10:34:46;;;;;;;;;;;;;;;;;;;;;
2024/05/06 10:37:55;;;;;;;;;;;;;;;;;;;;;
2024/05/06 10:40:34;;;;;;;3.72;1.98;;;;;;;24.37;35.33;99120.47;5062108;28;20009;-94
2024/05/06 10:43:05;;;;;;;3.53;1.83;;;;;;;24.30;35.31;99098.34;5014389;27;19998;-94
2024/05/06 10:45:44;;;;;;;;;;;;;;;;;;;;;
2024/05/06 10:48:13;;;;;;;3.75;1.73;;;;;;;24.14;34.41;99101.22;5043214;28;20010;-94
2024/05/06 10:50:51;;;;;;;3.33;1.80;;;;;;;24.28;34.72;99102.63;5011228;28;20023;-95
2024/05/06 10:53:29;;;;;;;5.00;1.98;;;;;;;24.36;34.97;99118.91;5013820;28;19990;-94
2024/05/06 10:55:58;;;;;;;4.80;2.00;;;;;;;24.27;34.76;99101.03;5015925;28;20007;-94
2024/05/06 10:58:26;;;;;;;5.57;2.03;;;;;;;24.24;34.67;99088.00;5010546;28;19994;-94
2024/05/06 11:00:53;;;;;;;7.07;2.05;;;;;;;24.27;34.69;99082.56;5011270;28;20010;-94
2024/05/06 11:03:22;;;;;;;4.05;2.17;;;;;;;24.31;34.38;99080.66;5011308;28;20010;-94
2024/05/06 11:05:53;;;;;;;4.13;2.10;;;;;;;24.35;33.88;99089.00;5010523;28;20007;-94
2024/05/06 11:08:29;;;;;;;;;;;;;;;24.50;33.50;99118.34;5011026;28;20006;-95
2024/05/06 11:11:05;;;;;;;;;;;;;;;;;;;;;
2024/05/06 11:13:40;;;;;;;7.05;1.88;;;;;;;24.35;33.88;99081.53;5039996;28;20449;-94
2024/05/06 11:16:07;;;;;;;8.52;1.85;;;;;;;24.44;32.97;99089.53;5014806;28;20003;-93
2024/05/06 11:18:33;;;;;;;3.67;1.83;;;;;;;24.39;32.00;99079.63;5009729;28;20002;-95
2024/05/06 11:21:01;;;;;;;4.28;1.85;;;;;;;24.49;32.90;99089.25;5009404;28;20010;-95
2024/05/06 11:24:13;;;;;;;7.22;2.05;;;;;;;24.48;32.84;99070.31;5010866;28;19998;-96
2024/05/06 11:41:52;;;;;;;4.10;1.77;;;;;;;24.95;29.88;99089.16;5055998;28;19998;-96
2024/05/06 11:44:35;;;;;;;;;;;;;;;;;;;;;
2024/05/06 11:47:05;;;;;;;2.50;1.70;;;;;;;25.08;29.68;99073.19;5047739;28;20333;-96
2024/05/06 11:49:47;;;;;;;;;;;;;;;;;;;;;
2024/05/06 11:52:22;;;;;;;3.75;1.70;;;;;;;25.10;28.20;99079.13;5024530;28;19999;-96
2024/05/06 11:55:03;;;;;;;3.90;1.77;;;;;;;24.98;29.62;99049.03;4973181;28;19990;-96
2024/05/06 11:57:43;;;;;;;2.53;1.60;;;;;;;25.07;29.34;99051.50;5040946;28;20007;-96
2024/05/06 12:00:15;;;;;;;5.18;1.50;;;;;;;25.05;28.90;99059.34;5041092;28;20451;-96
2024/05/06 12:02:46;;;;;;;4.72;1.55;;;;;;;25.00;29.21;99054.97;5018287;28;20006;-96
2024/05/06 12:05:14;;;;;;;6.97;1.60;;;;;;;25.11;29.19;99072.44;5016523;28;20149;-96
2024/05/06 12:11:12;;;;;;;6.80;1.98;;;;;;;25.10;29.14;99053.53;4957357;29;20050;-96
2024/05/06 12:13:52;;;;;;;5.82;1.88;;;;;;;25.09;28.94;99043.66;5065998;23;20015;-96
2024/05/06 12:16:40;;;;;;;2.92;1.50;;;;;;;25.09;29.34;99052.75;4978913;28;20016;-96
2024/05/06 12:19:06;;;;;;;3.65;1.70;;;;;;;25.19;29.58;99051.28;4942551;28;20008;-93
2024/05/06 12:21:45;;;;;;;;;;;;;;;;;;;;;
2024/05/06 12:24:45;;;;;;;3.20;1.77;;;;;;;25.14;28.41;99029.56;4948274;28;20005;-94
2024/05/06 12:27:14;;;;;;;4.82;1.75;;;;;;;25.34;28.73;99050.31;4966091;28;20055;-95
2024/05/06 12:29:42;;;;;;;5.50;1.90;;;;;;;25.30;28.18;99027.44;4942473;28;20084;-94
2024/05/06 12:32:08;;;;;;;4.63;1.70;;;;;;;25.37;28.81;99029.47;4917451;28;20441;-94
2024/05/06 12:34:45;;;;;;;5.13;1.70;;;;;;;25.43;28.59;99027.97;4917484;28;20045;-96
2024/05/06 12:37:34;;;;;;;3.85;1.48;;;;;;;25.57;28.48;99050.19;4948884;28;20021;-94
2024/05/06 12:40:20;;;;;;;2.70;1.70;;;;;;;25.50;28.31;99041.81;4947455;28;20009;-96
2024/05/06 12:42:56;;;;;;;;;;;;;;;;;;;;;
2024/05/06 12:45:25;;;;;;;4.90;1.58;;;;;;;25.35;29.10;99021.56;4980571;28;20015;-95
2024/05/06 12:47:51;;;;;;;4.38;1.83;;;;;;;25.38;29.03;99015.31;4950830;28;20003;-96
2024/05/06 12:50:22;;;;;;;5.22;1.40;;;;;;;25.57;28.62;99022.63;4948316;28;19992;-96
2024/05/06 12:53:11;;;;;;;3.40;1.58;;;;;;;25.80;29.14;99039.00;4958479;28;20002;-94
2024/05/06 12:55:43;;;;;;;2.90;1.60;;;;;;;25.71;29.15;99018.41;5017973;28;20083;-95
2024/05/06 12:58:31;;;;;;;3.45;1.70;;;;;;;25.91;28.30;99025.34;5010847;28;20007;-96
2024/05/06 13:01:04;;;;;;;3.70;1.50;;;;;;;25.86;29.07;99011.06;5037006;28;20007;-95
2024/05/06 13:03:35;;;;;;;6.28;1.63;;;;;;;25.73;28.52;99005.03;5013256;28;20006;-94
2024/05/06 13:06:04;;;;;;;2.78;1.80;;;;;;;25.89;28.48;99004.78;5011138;28;20009;-96
2024/05/06 13:08:33;;;;;;;5.85;1.67;;;;;;;25.95;28.53;98998.56;5010191;28;20011;-96
2024/05/06 13:11:02;;;;;;;4.32;1.65;;;;;;;25.93;28.24;98989.88;5036097;28;19999;-95
2024/05/06 13:13:31;;;;;;;3.35;1.63;;;;;;;25.98;29.24;98992.31;5010666;28;20006;-95
2024/05/06 13:16:08;;;;;;;2.28;1.58;;;;;;;26.13;28.97;99008.97;5038138;27;20017;-96